»·PEaware :: SCX235 KSFO-KPSP

SCX235 :: KSFO-KPSP

FLIGHT INFORMATION

Flight Status: Arrived
Operator:
Sun Country Airlines
More flights by this operator :: More flights under this callsign
Pilot: Josh T. (20631)
Aircraft: BOEING 737-800
(B738)
More flights by this aircraft type
Origin: KSFO San Francisco Intl
United States
Destination: KPSP Palm Springs Intl
United States
More flights between these airports :: More routes between these airports
Route: SSTIK4 LOSHN CLASN SIZLR3
File this flight plan on PilotEdge
Remarks:
Altitude:
(Current/Filed)
31,000ft
Speed:
(Current/Filed)
397kts
Departed: 03-Apr-20 12:01 PM
Arrived: 03-Apr-20 01:08 PM
Distance/Time
Traveled:
365nm/1:07
Distance/Time
To Go:
Arrived

Flight Plot

Page will automatically refresh every two minutes.

Flight plan parsing failed; only flown route is shown


Map Options




Map Legend


Flown Route
Filed Route
Departure Airport
Arrival Airport
Navaid (VOR, NDB)
Fix

Horizontal Profiles

Position Reports

Time Latitude Longitude Heading Altitude Ground
Speed
03-Apr-20 11:27 37.618612 -122.391791 206 21ft 0kts
03-Apr-20 11:28 37.618612 -122.391791 206 21ft 0kts
03-Apr-20 11:29 37.618612 -122.391791 206 21ft 0kts
03-Apr-20 11:30 37.618612 -122.391791 206 21ft 0kts
03-Apr-20 11:31 37.618612 -122.391791 206 21ft 0kts
03-Apr-20 11:32 37.618612 -122.391791 206 21ft 0kts
03-Apr-20 11:33 37.618612 -122.391791 206 21ft 0kts
03-Apr-20 11:34 37.618612 -122.391791 206 21ft 0kts
03-Apr-20 11:35 37.618612 -122.391791 206 21ft 0kts
03-Apr-20 11:36 37.618612 -122.391791 206 21ft 0kts
03-Apr-20 11:37 37.618612 -122.391791 206 21ft 0kts
03-Apr-20 11:38 37.618612 -122.391791 206 21ft 0kts
03-Apr-20 11:39 37.618612 -122.391791 206 21ft 0kts
03-Apr-20 11:40 37.618612 -122.391791 206 21ft 0kts
03-Apr-20 11:41 37.618612 -122.391791 206 21ft 0kts
03-Apr-20 11:42 37.618612 -122.391791 206 21ft 0kts
03-Apr-20 11:43 37.618612 -122.391791 206 21ft 0kts
03-Apr-20 11:44 37.618612 -122.391791 206 21ft 0kts
03-Apr-20 11:45 37.618612 -122.391791 206 21ft 0kts
03-Apr-20 11:46 37.618612 -122.391791 206 21ft 0kts
03-Apr-20 11:47 37.618612 -122.391791 206 21ft 0kts
03-Apr-20 11:48 37.618953 -122.391535 218 21ft 2kts
03-Apr-20 11:49 37.619169 -122.391020 297 21ft 0kts
03-Apr-20 11:50 37.619169 -122.391020 297 21ft 0kts
03-Apr-20 11:51 37.619169 -122.391020 297 21ft 0kts
03-Apr-20 11:52 37.619398 -122.391583 297 21ft 6kts
03-Apr-20 11:53 37.621257 -122.391726 27 21ft 11kts
03-Apr-20 11:54 37.622645 -122.389383 84 21ft 8kts
03-Apr-20 11:55 37.620837 -122.384824 117 21ft 19kts
03-Apr-20 11:56 37.618310 -122.379706 151 21ft 14kts
03-Apr-20 11:57 37.614939 -122.380755 207 21ft 11kts
03-Apr-20 11:58 37.612220 -122.382562 207 21ft 10kts
03-Apr-20 11:59 37.609420 -122.383487 116 21ft 8kts
03-Apr-20 12:00 37.611384 -122.380607 27 21ft 72kts
03-Apr-20 12:01 37.649139 -122.361190 1 2298ft 166kts
03-Apr-20 12:02 37.705255 -122.373896 316 3933ft 246kts
03-Apr-20 12:03 37.690514 -122.447455 196 7110ft 284kts
03-Apr-20 12:04 37.608548 -122.451284 190 9847ft 302kts
03-Apr-20 12:05 37.522546 -122.467672 187 10019ft 341kts
03-Apr-20 12:06 37.440107 -122.406968 128 11742ft 370kts
03-Apr-20 12:07 37.376370 -122.300980 128 14655ft 390kts
03-Apr-20 12:08 37.306561 -122.191681 129 17466ft 409kts
03-Apr-20 12:09 37.233568 -122.078294 129 19973ft 428kts
03-Apr-20 12:10 37.156604 -121.959528 130 22262ft 446kts
03-Apr-20 12:11 37.076838 -121.837271 130 24316ft 461kts
03-Apr-20 12:12 36.994260 -121.711232 130 26168ft 475kts
03-Apr-20 12:13 36.909340 -121.582119 129 27822ft 487kts
03-Apr-20 12:14 36.822253 -121.450215 129 29312ft 497kts
03-Apr-20 12:15 36.734105 -121.317231 129 31050ft 496kts
03-Apr-20 12:16 36.646342 -121.184797 129 31149ft 492kts
03-Apr-20 12:17 36.558899 -121.054213 129 31142ft 492kts
03-Apr-20 12:18 36.471070 -120.923311 129 31129ft 492kts
03-Apr-20 12:19 36.383604 -120.792748 129 31121ft 491kts
03-Apr-20 12:20 36.296140 -120.662722 129 31115ft 491kts
03-Apr-20 12:21 36.208811 -120.532339 129 31110ft 496kts
03-Apr-20 12:22 36.119466 -120.399897 129 31106ft 503kts
03-Apr-20 12:23 36.029708 -120.267086 129 31106ft 503kts
03-Apr-20 12:24 35.939560 -120.134788 129 31105ft 503kts
03-Apr-20 12:25 35.851663 -120.001033 122 31105ft 502kts
03-Apr-20 12:26 35.789764 -119.847251 111 31105ft 499kts
03-Apr-20 12:27 35.731776 -119.691798 113 31105ft 499kts
03-Apr-20 12:28 35.672278 -119.537561 117 31104ft 499kts
03-Apr-20 12:29 35.587567 -119.403293 133 31100ft 498kts
03-Apr-20 12:30 35.494209 -119.278491 133 31100ft 497kts
03-Apr-20 12:31 35.401172 -119.153655 133 31099ft 495kts
03-Apr-20 12:32 35.308095 -119.029305 134 31098ft 494kts
03-Apr-20 12:33 35.214633 -118.905828 134 31091ft 493kts
03-Apr-20 12:34 35.146218 -118.815701 134 31085ft 492kts
03-Apr-20 12:35 35.053278 -118.693103 134 31084ft 492kts
03-Apr-20 12:36 34.960554 -118.570695 134 31074ft 491kts
03-Apr-20 12:37 34.868347 -118.450303 135 30273ft 473kts
03-Apr-20 12:38 34.777067 -118.331169 133 26001ft 486kts
03-Apr-20 12:39 34.695141 -118.203479 129 22192ft 469kts
03-Apr-20 12:40 34.616536 -118.082183 129 20296ft 452kts
03-Apr-20 12:41 34.549571 -117.953673 115 19046ft 446kts
03-Apr-20 12:42 34.499181 -117.828825 117 17983ft 383kts
03-Apr-20 12:43 34.451694 -117.713535 117 16981ft 381kts
03-Apr-20 12:44 34.405362 -117.599467 116 16101ft 375kts
03-Apr-20 12:45 34.358802 -117.486137 117 16089ft 375kts
03-Apr-20 12:46 34.312222 -117.373111 117 16091ft 375kts
03-Apr-20 12:47 34.262528 -117.262472 120 16096ft 375kts
03-Apr-20 12:48 34.211421 -117.153025 120 16104ft 374kts
03-Apr-20 12:49 34.159968 -117.043810 120 16111ft 373kts
03-Apr-20 12:50 34.108574 -116.934805 120 16043ft 373kts
03-Apr-20 12:51 34.057974 -116.826416 120 14707ft 368kts
03-Apr-20 12:52 34.016909 -116.714912 106 13302ft 367kts
03-Apr-20 12:53 33.987219 -116.600709 108 11773ft 343kts
03-Apr-20 12:54 33.940517 -116.508910 137 10402ft 313kts
03-Apr-20 12:55 33.880483 -116.441699 137 9342ft 284kts
03-Apr-20 12:56 33.841732 -116.363438 117 8037ft 253kts
03-Apr-20 12:57 33.813073 -116.295386 117 7049ft 216kts
03-Apr-20 12:58 33.770585 -116.251594 166 6036ft 214kts
03-Apr-20 12:59 33.716586 -116.235857 167 4910ft 182kts
03-Apr-20 13:00 33.678788 -116.260736 254 3959ft 171kts
03-Apr-20 13:01 33.676452 -116.316843 267 3966ft 168kts
03-Apr-20 13:02 33.682700 -116.371748 311 3886ft 169kts
03-Apr-20 13:03 33.719325 -116.405722 322 3032ft 158kts
03-Apr-20 13:04 33.752643 -116.436579 321 2338ft 146kts
03-Apr-20 13:05 33.784002 -116.465990 320 1478ft 133kts
03-Apr-20 13:06 33.813227 -116.493099 322 725ft 133kts
03-Apr-20 13:07 33.829000 -116.507865 252 485ft 11kts
03-Apr-20 13:08 33.828822 -116.508497 248 485ft 0kts
03-Apr-20 13:09 33.827879 -116.508125 143 485ft 9kts
03-Apr-20 13:11 33.825506 -116.506199 197 485ft 6kts
03-Apr-20 13:12 33.822906 -116.504763 177 485ft 8kts
03-Apr-20 13:13 33.822288 -116.506143 330 485ft 4kts
03-Apr-20 13:14 33.822478 -116.506256 333 485ft 0kts

Navigation Log

Ident Type
Flight plan parsing failed, navigation log unavailable